Time;durP1;ratioP1;P1;durP2;ratioP2;P2;SDS_P1;SDS_P2;PMS_P1;PMS_P2;Temp;Humidity;BMP_temperature;BMP_pressure;BME280_temperature;BME280_humidity;BME280_pressure;Samples;Min_cycle;Max_cycle;Signal;HPM_P1;HPM_P2
2022/01/24 00:01:09;;;;;;;7.07;4.90;;;5.00;99.90;;;;;;5093128;28;20200;-50
2022/01/24 00:03:35;;;;;;;5.97;4.43;;;4.90;99.90;;;;;;5093045;28;20181;-52
2022/01/24 00:06:00;;;;;;;5.40;4.07;;;5.00;99.90;;;;;;5093602;28;20169;-50
2022/01/24 00:08:28;;;;;;;6.85;4.95;;;5.00;99.90;;;;;;5093376;28;20539;-50
2022/01/24 00:10:54;;;;;;;6.35;4.70;;;5.00;99.90;;;;;;5056806;28;1022304;-50
2022/01/24 00:14:17;;;;;;;6.72;4.40;;;4.90;99.90;;;;;;5094172;28;20172;-52
2022/01/24 00:26:54;;;;;;;4.50;3.88;;;5.00;99.90;;;;;;5093990;28;20214;-51
2022/01/24 00:29:22;;;;;;;9.25;4.78;;;4.90;99.90;;;;;;5093903;28;20169;-51
2022/01/24 00:31:48;;;;;;;6.13;4.47;;;5.00;99.90;;;;;;5093880;28;20237;-53
2022/01/24 00:34:14;;;;;;;6.25;4.30;;;4.90;99.90;;;;;;5093817;28;20169;-50
2022/01/24 00:36:40;;;;;;;6.10;4.40;;;5.00;99.90;;;;;;5093492;28;20619;-50
2022/01/24 00:39:07;;;;;;;9.90;4.88;;;4.90;99.90;;;;;;5093363;28;20199;-51
2022/01/24 00:41:44;;;;;;;7.65;4.45;;;5.00;99.90;;;;;;5092816;28;20292;-54
2022/01/24 00:46:59;;;;;;;7.97;4.38;;;4.90;99.90;;;;;;5093681;28;20161;-53
2022/01/24 00:54:52;;;;;;;10.45;6.35;;;4.90;99.90;;;;;;5093516;28;20184;-51
2022/01/24 00:57:19;;;;;;;8.82;6.28;;;4.80;99.90;;;;;;5093453;28;20571;-50
2022/01/24 00:59:45;;;;;;;9.23;5.85;;;4.80;99.90;;;;;;5093331;28;20173;-52
2022/01/24 01:02:11;;;;;;;6.97;4.63;;;4.80;99.90;;;;;;5093047;28;20275;-53
2022/01/24 01:07:35;;;;;;;7.18;4.40;;;4.80;99.90;;;;;;5093248;28;20254;-54
2022/01/24 01:18:17;;;;;;;8.57;4.95;;;4.60;99.90;;;;;;5093037;28;20225;-52
2022/01/24 01:21:07;;;;;;;7.25;4.82;;;4.60;99.90;;;;;;5092592;28;20288;-54
2022/01/24 01:23:32;;;;;;;6.35;4.40;;;4.60;99.90;;;;;;5092807;28;20256;-53
2022/01/24 01:26:01;;;;;;;5.50;4.05;;;4.60;99.90;;;;;;5092976;28;20162;-51
2022/01/24 01:28:28;;;;;;;6.53;4.40;;;4.60;99.90;;;;;;5093167;28;20181;-58
2022/01/24 01:30:58;;;;;;;7.05;4.70;;;4.60;99.90;;;;;;5092678;28;20221;-54
2022/01/24 01:33:36;;;;;;;6.43;4.78;;;4.60;99.90;;;;;;5092787;28;20165;-52
2022/01/24 01:36:19;;;;;;;7.65;4.57;;;4.60;99.90;;;;;;5092711;28;20177;-55
2022/01/24 01:54:56;;;;;;;8.55;4.60;;;4.40;99.90;;;;;;5092502;28;20256;-51
2022/01/24 01:57:23;;;;;;;7.18;4.10;;;4.40;99.90;;;;;;5092490;28;20173;-52
2022/01/24 01:59:49;;;;;;;6.88;4.13;;;4.40;99.90;;;;;;5092179;28;20161;-49
2022/01/24 02:02:15;;;;;;;5.80;4.70;;;4.30;99.90;;;;;;5092137;28;20307;-49
2022/01/24 02:04:41;;;;;;;5.15;4.20;;;4.20;99.90;;;;;;5092130;28;20199;-51
2022/01/24 02:07:15;;;;;;;6.68;4.38;;;4.20;99.90;;;;;;5092106;28;20165;-52
2022/01/24 02:09:43;;;;;;;6.07;4.80;;;4.20;99.90;;;;;;5092106;28;20162;-48
2022/01/24 02:12:09;;;;;;;6.80;4.82;;;4.20;99.90;;;;;;5092025;28;20232;-54
2022/01/24 02:14:40;;;;;;;5.82;4.80;;;4.20;99.90;;;;;;5092020;28;20248;-54
2022/01/24 02:17:11;;;;;;;5.65;4.38;;;4.30;99.90;;;;;;5092261;28;20252;-50
2022/01/24 02:25:01;;;;;;;6.68;4.60;;;4.20;99.90;;;;;;5091943;28;20699;-51
2022/01/24 02:27:33;;;;;;;7.05;4.63;;;4.20;99.90;;;;;;5092512;28;20173;-50
2022/01/24 02:32:38;;;;;;;7.07;4.15;;;4.10;99.90;;;;;;5091914;28;20157;-55
2022/01/24 02:35:06;;;;;;;5.82;3.90;;;4.20;99.90;;;;;;5092127;28;20507;-58
2022/01/24 02:37:31;;;;;;;5.25;3.95;;;4.20;99.90;;;;;;5092065;28;20169;-52
2022/01/24 02:40:03;;;;;;;5.57;4.10;;;4.10;99.90;;;;;;5092213;28;20558;-52
2022/01/24 02:53:13;;;;;;;5.45;4.25;;;4.10;99.90;;;;;;5091950;28;20157;-53
2022/01/24 02:55:40;;;;;;;5.53;3.80;;;4.10;99.90;;;;;;5091698;28;20180;-51
2022/01/24 02:58:06;;;;;;;4.75;4.07;;;4.00;99.90;;;;;;5091702;28;20170;-53
2022/01/24 03:00:32;;;;;;;7.40;4.05;;;4.10;99.90;;;;;;5091546;28;20512;-51
2022/01/24 03:02:58;;;;;;;5.97;3.97;;;4.00;99.90;;;;;;5092162;28;20177;-52
2022/01/24 03:05:23;;;;;;;8.13;4.32;;;4.00;99.90;;;;;;5093596;28;20171;-53
2022/01/24 03:07:49;;;;;;;6.65;4.20;;;4.00;99.90;;;;;;5095290;28;20210;-55
2022/01/24 03:10:25;;;;;;;6.00;4.68;;;4.00;99.90;;;;;;5095197;28;20248;-52
2022/01/24 03:13:09;;;;;;;4.70;3.75;;;4.00;99.90;;;;;;5094974;28;20235;-52
2022/01/24 03:15:34;;;;;;;6.50;4.47;;;4.00;99.90;;;;;;5095369;28;20215;-52
2022/01/24 03:18:00;;;;;;;5.60;3.97;;;4.00;99.90;;;;;;5095391;28;20169;-51
2022/01/24 03:20:25;;;;;;;5.57;4.40;;;4.00;99.90;;;;;;5094982;28;20203;-53
2022/01/24 03:22:51;;;;;;;5.60;4.20;;;3.90;99.90;;;;;;5095026;28;20517;-52
2022/01/24 03:25:16;;;;;;;4.80;4.07;;;3.90;99.90;;;;;;5095071;28;20201;-56
2022/01/24 03:27:42;;;;;;;6.47;4.53;;;3.90;99.90;;;;;;5094992;28;20183;-52
2022/01/24 03:30:08;;;;;;;5.65;4.40;;;3.90;99.90;;;;;;5094928;28;20177;-52
2022/01/24 03:32:33;;;;;;;5.00;4.18;;;3.90;99.90;;;;;;5094830;28;20590;-51
2022/01/24 03:34:59;;;;;;;5.07;4.03;;;3.90;99.90;;;;;;5095277;28;20165;-58
2022/01/24 03:37:24;;;;;;;5.97;4.10;;;3.90;99.90;;;;;;5094763;28;20177;-58
2022/01/24 03:39:50;;;;;;;7.95;4.50;;;3.80;99.90;;;;;;5094853;28;20493;-48
2022/01/24 03:42:15;;;;;;;4.70;4.20;;;3.80;99.90;;;;;;5094634;28;20205;-48
2022/01/24 03:44:44;;;;;;;6.18;4.38;;;3.80;99.90;;;;;;5094570;28;20201;-48
2022/01/24 03:47:30;;;;;;;6.15;4.90;;;3.80;99.90;;;;;;5094782;28;20257;-49
2022/01/24 03:49:56;;;;;;;5.93;4.30;;;3.80;99.90;;;;;;5095009;28;20173;-50
2022/01/24 03:52:22;;;;;;;7.38;4.40;;;3.80;99.90;;;;;;5094736;28;20294;-48
2022/01/24 03:54:49;;;;;;;6.15;4.53;;;3.90;99.90;;;;;;5094457;28;20214;-47
2022/01/24 03:57:18;;;;;;;7.00;4.63;;;3.80;99.90;;;;;;5094620;28;20173;-49
2022/01/24 03:59:43;;;;;;;8.65;4.60;;;3.80;99.90;;;;;;5094135;28;20172;-49
2022/01/24 04:02:11;;;;;;;7.32;4.85;;;3.80;99.90;;;;;;5094162;28;20197;-51
2022/01/24 04:04:36;;;;;;;6.88;4.68;;;3.90;99.90;;;;;;5094285;28;20165;-57
2022/01/24 04:07:02;;;;;;;4.93;4.28;;;3.90;99.90;;;;;;5094256;28;20174;-59
2022/01/24 04:09:28;;;;;;;5.85;4.47;;;4.00;99.90;;;;;;5094692;28;20629;-48
2022/01/24 04:11:56;;;;;;;5.35;4.43;;;4.00;99.90;;;;;;5094092;28;20587;-60
2022/01/24 04:22:16;;;;;;;8.13;4.97;;;4.10;99.90;;;;;;5094052;28;20717;-59
2022/01/24 04:24:43;;;;;;;7.45;4.22;;;4.10;99.90;;;;;;5094026;28;20184;-59
2022/01/24 04:27:09;;;;;;;6.47;4.78;;;4.10;99.90;;;;;;5094106;28;20193;-59
2022/01/24 04:29:36;;;;;;;5.95;4.75;;;4.00;99.90;;;;;;5093745;28;20169;-59
2022/01/24 04:32:03;;;;;;;7.40;5.00;;;4.10;99.90;;;;;;5093916;28;20200;-58
2022/01/24 04:34:29;;;;;;;5.53;4.82;;;4.10;99.90;;;;;;5094129;28;20263;-60
2022/01/24 04:36:54;;;;;;;8.40;5.78;;;4.10;99.90;;;;;;5093557;28;20222;-59
2022/01/24 04:39:20;;;;;;;7.47;4.85;;;4.20;99.90;;;;;;5093546;28;20184;-58
2022/01/24 04:41:49;;;;;;;6.75;4.60;;;4.20;99.90;;;;;;5093445;28;20256;-57
2022/01/24 04:47:24;;;;;;;6.85;4.80;;;4.30;99.90;;;;;;5093705;28;20283;-59
2022/01/24 04:52:25;;;;;;;8.63;5.10;;;4.40;99.90;;;;;;5093291;28;20230;-54
2022/01/24 04:54:51;;;;;;;7.53;4.80;;;4.30;99.90;;;;;;5093169;28;20162;-52
2022/01/24 04:57:21;;;;;;;5.40;4.30;;;4.30;99.90;;;;;;5093119;28;20680;-51
2022/01/24 04:59:50;;;;;;;7.07;4.60;;;4.30;99.90;;;;;;5093430;28;20173;-53
2022/01/24 05:02:17;;;;;;;10.25;5.03;;;4.40;99.90;;;;;;5092985;28;20633;-50
2022/01/24 05:04:43;;;;;;;6.95;4.63;;;4.40;99.90;;;;;;5093032;28;20639;-50
2022/01/24 05:07:08;;;;;;;5.18;4.03;;;4.40;99.90;;;;;;5093030;28;20173;-49
2022/01/24 05:09:45;;;;;;;5.80;4.35;;;4.40;99.90;;;;;;5074752;28;20170;-56
2022/01/24 05:12:27;;;;;;;6.68;4.15;;;4.50;99.90;;;;;;5092733;28;20216;-55
2022/01/24 05:25:31;;;;;;;6.95;4.43;;;4.50;99.90;;;;;;5092633;28;20207;-48
2022/01/24 05:27:57;;;;;;;8.75;4.90;;;4.50;99.90;;;;;;5092653;28;20173;-49
2022/01/24 05:30:23;;;;;;;6.85;4.82;;;4.40;99.90;;;;;;5092578;28;20176;-55
2022/01/24 05:32:48;;;;;;;5.78;4.63;;;4.40;99.90;;;;;;5092613;28;20203;-50
2022/01/24 05:35:14;;;;;;;6.95;5.47;;;4.40;99.90;;;;;;5092876;28;20174;-57
2022/01/24 05:37:40;;;;;;;6.22;4.57;;;4.40;99.90;;;;;;5092467;28;20223;-58
2022/01/24 05:40:06;;;;;;;7.75;5.40;;;4.40;99.90;;;;;;5092703;28;20184;-59
2022/01/24 05:42:31;;;;;;;5.63;4.85;;;4.30;99.90;;;;;;5092376;28;20205;-58
2022/01/24 05:44:58;;;;;;;8.75;5.30;;;4.30;99.90;;;;;;5092696;28;20180;-58
2022/01/24 05:47:24;;;;;;;6.82;4.72;;;4.30;99.90;;;;;;5092624;28;20240;-59
2022/01/24 05:49:49;;;;;;;7.78;5.20;;;4.20;99.90;;;;;;5092494;28;20169;-59
2022/01/24 05:52:15;;;;;;;9.35;5.95;;;4.20;99.90;;;;;;5092133;28;20174;-60
2022/01/24 05:54:41;;;;;;;8.75;6.15;;;4.10;99.90;;;;;;5092075;28;20215;-59
2022/01/24 05:57:08;;;;;;;9.50;6.65;;;4.10;99.90;;;;;;5092228;28;20215;-58
2022/01/24 05:59:34;;;;;;;8.73;5.97;;;4.10;99.90;;;;;;5092183;28;20505;-59
2022/01/24 06:02:00;;;;;;;8.00;5.80;;;4.00;99.90;;;;;;5092441;28;20209;-57
2022/01/24 06:04:26;;;;;;;8.60;5.40;;;4.00;99.90;;;;;;5092625;28;20225;-54
2022/01/24 06:06:51;;;;;;;10.90;5.93;;;4.00;99.90;;;;;;5092484;28;20648;-57
2022/01/24 06:09:17;;;;;;;8.60;6.40;;;4.00;99.90;;;;;;5074031;28;20226;-57
2022/01/24 06:11:43;;;;;;;9.77;6.38;;;3.90;99.90;;;;;;5091893;28;20723;-58
2022/01/24 06:14:10;;;;;;;7.45;5.78;;;3.90;99.90;;;;;;5092261;28;20176;-57
2022/01/24 06:16:35;;;;;;;8.10;6.28;;;3.80;99.90;;;;;;5074076;28;20169;-58
2022/01/24 06:19:01;;;;;;;8.27;5.75;;;3.80;99.90;;;;;;5092176;28;20643;-58
2022/01/24 06:21:26;;;;;;;8.10;5.68;;;3.80;99.90;;;;;;5092237;28;20249;-59
2022/01/24 06:23:52;;;;;;;6.40;5.47;;;3.80;99.90;;;;;;5092001;28;20165;-52
2022/01/24 06:26:18;;;;;;;8.40;6.22;;;3.90;99.90;;;;;;5091938;28;20636;-59
2022/01/24 06:28:43;;;;;;;9.18;5.57;;;3.80;99.90;;;;;;5091912;28;20635;-54
2022/01/24 06:31:09;;;;;;;8.05;5.55;;;3.80;99.90;;;;;;5092259;28;20176;-56
2022/01/24 06:33:34;;;;;;;7.72;5.68;;;3.70;99.90;;;;;;5091722;28;20652;-57
2022/01/24 06:36:00;;;;;;;9.18;5.65;;;3.80;99.90;;;;;;5092095;28;20286;-52
2022/01/24 06:38:26;;;;;;;8.07;5.60;;;3.70;99.90;;;;;;5092052;28;20161;-57
2022/01/24 06:40:51;;;;;;;8.02;5.95;;;3.70;99.90;;;;;;5094522;28;20254;-60
2022/01/24 06:43:17;;;;;;;9.63;6.40;;;3.70;99.90;;;;;;5095652;28;20247;-54
2022/01/24 06:45:43;;;;;;;12.88;7.85;;;3.80;99.90;;;;;;5095569;28;20192;-58
2022/01/24 06:48:08;;;;;;;12.40;8.43;;;3.70;99.90;;;;;;5095727;28;20207;-58
2022/01/24 06:50:34;;;;;;;11.52;7.78;;;3.70;99.90;;;;;;5095597;28;20164;-52
2022/01/24 06:53:00;;;;;;;10.05;7.63;;;3.70;99.90;;;;;;5096146;28;20173;-58
2022/01/24 06:55:25;;;;;;;10.40;7.35;;;3.60;99.90;;;;;;5095786;28;20176;-59
2022/01/24 06:57:51;;;;;;;9.55;7.20;;;3.60;99.90;;;;;;5095424;28;20205;-55
2022/01/24 07:00:17;;;;;;;8.73;6.60;;;3.60;99.90;;;;;;5095432;28;20168;-57
2022/01/24 07:02:42;;;;;;;16.95;7.28;;;3.60;99.90;;;;;;5095502;28;20208;-54
2022/01/24 07:05:08;;;;;;;14.00;7.05;;;3.60;99.90;;;;;;5095323;28;20645;-57
2022/01/24 07:07:34;;;;;;;8.48;6.32;;;3.50;99.90;;;;;;5095212;28;20214;-55
2022/01/24 07:10:00;;;;;;;6.93;6.20;;;3.60;99.90;;;;;;5095503;28;20161;-54
2022/01/24 07:12:26;;;;;;;12.68;6.35;;;3.60;99.90;;;;;;5095423;28;20711;-47
2022/01/24 07:14:53;;;;;;;9.65;6.65;;;3.60;99.90;;;;;;5095018;28;20165;-59
2022/01/24 07:19:50;;;;;;;8.75;6.55;;;3.50;99.90;;;;;;5095345;28;20165;-54
2022/01/24 07:22:16;;;;;;;10.25;6.35;;;3.60;99.90;;;;;;5094889;28;20208;-59
2022/01/24 07:24:42;;;;;;;8.50;6.60;;;3.50;99.90;;;;;;5095167;28;20576;-58
2022/01/24 07:27:07;;;;;;;11.02;7.25;;;3.50;99.90;;;;;;5095051;28;20256;-56
2022/01/24 07:29:33;;;;;;;7.68;6.28;;;3.50;99.90;;;;;;5094819;28;20166;-59
2022/01/24 07:32:00;;;;;;;10.73;6.43;;;3.50;99.90;;;;;;5095151;28;20161;-58
2022/01/24 07:34:25;;;;;;;14.13;6.40;;;3.40;99.90;;;;;;5095285;28;20173;-49
2022/01/24 07:36:51;;;;;;;8.45;6.18;;;3.40;99.90;;;;;;5094622;28;20173;-52
2022/01/24 07:39:17;;;;;;;7.60;6.25;;;3.40;99.90;;;;;;5094520;28;20617;-49
2022/01/24 07:41:45;;;;;;;8.57;6.47;;;3.40;99.90;;;;;;5094350;28;20338;-51
2022/01/24 07:44:12;;;;;;;8.85;6.45;;;3.40;99.90;;;;;;5094793;28;20177;-55
2022/01/24 07:46:38;;;;;;;7.88;6.10;;;3.40;99.90;;;;;;5094555;28;20176;-52
2022/01/24 07:49:07;;;;;;;8.18;6.18;;;3.20;99.90;;;;;;5094463;28;20174;-54
2022/01/24 07:51:33;;;;;;;10.23;6.10;;;3.30;99.90;;;;;;5094376;28;20264;-51
2022/01/24 07:53:59;;;;;;;7.38;5.90;;;3.40;99.90;;;;;;5094738;28;20172;-56
2022/01/24 07:56:24;;;;;;;10.90;5.72;;;3.40;99.90;;;;;;5094349;28;20169;-52
2022/01/24 07:58:50;;;;;;;7.80;5.63;;;3.50;99.90;;;;;;5094319;28;20176;-53
2022/01/24 08:01:15;;;;;;;6.68;5.97;;;3.50;99.90;;;;;;5094220;28;20197;-59
2022/01/24 08:03:42;;;;;;;8.35;6.13;;;3.50;99.90;;;;;;5094444;28;20520;-58
2022/01/24 08:06:07;;;;;;;7.35;6.10;;;3.60;99.90;;;;;;5094191;28;20643;-58
2022/01/24 08:08:33;;;;;;;12.68;6.75;;;3.60;99.90;;;;;;5094111;28;20169;-59
2022/01/24 08:10:59;;;;;;;9.60;6.90;;;3.70;99.90;;;;;;5094205;28;20196;-59
2022/01/24 08:13:25;;;;;;;9.50;5.93;;;3.80;99.90;;;;;;5094290;28;20177;-57
2022/01/24 08:15:50;;;;;;;9.68;6.50;;;3.80;99.90;;;;;;5093934;28;20268;-59
2022/01/24 08:18:16;;;;;;;7.35;6.15;;;3.80;99.90;;;;;;5093970;28;20177;-59
2022/01/24 08:20:41;;;;;;;10.68;6.07;;;3.90;99.90;;;;;;5093773;28;20234;-56
2022/01/24 08:23:11;;;;;;;8.48;5.68;;;4.00;99.90;;;;;;5094054;28;20176;-59
2022/01/24 08:25:37;;;;;;;6.85;5.95;;;4.10;99.90;;;;;;5093673;28;20215;-58
2022/01/24 08:28:03;;;;;;;8.45;6.15;;;4.20;99.90;;;;;;5093769;28;20165;-58
2022/01/24 08:30:29;;;;;;;10.35;6.75;;;4.20;99.90;;;;;;5093891;28;20642;-57
2022/01/24 08:32:54;;;;;;;9.88;6.78;;;4.20;99.90;;;;;;5093642;28;20648;-54
2022/01/24 08:35:21;;;;;;;15.77;6.95;;;4.30;99.90;;;;;;5093674;28;20244;-58
2022/01/24 08:37:47;;;;;;;11.20;6.72;;;4.30;99.90;;;;;;5093497;28;20667;-58
2022/01/24 08:40:21;;;;;;;9.05;6.57;;;4.40;99.90;;;;;;5093435;28;20166;-57
2022/01/24 08:43:00;;;;;;;10.80;6.50;;;4.60;99.90;;;;;;5093568;28;20274;-58
2022/01/24 08:48:09;;;;;;;6.78;6.13;;;4.70;99.90;;;;;;5093663;28;20177;-55
2022/01/24 08:50:35;;;;;;;10.48;6.70;;;4.80;99.90;;;;;;5075096;28;20244;-52
2022/01/24 08:53:03;;;;;;;11.07;6.75;;;5.00;99.90;;;;;;5074960;28;20582;-53
2022/01/24 08:55:30;;;;;;;9.48;7.25;;;5.00;99.90;;;;;;5093496;28;20164;-54
2022/01/24 08:57:57;;;;;;;7.80;6.82;;;5.10;99.90;;;;;;5093383;28;20686;-58
2022/01/24 09:00:24;;;;;;;7.72;6.80;;;5.10;99.90;;;;;;5093127;28;20244;-57
2022/01/24 09:02:50;;;;;;;11.32;7.57;;;5.30;99.90;;;;;;5092253;28;20716;-58
2022/01/24 09:05:17;;;;;;;10.00;7.53;;;5.30;99.90;;;;;;5092997;28;20567;-52
2022/01/24 09:07:44;;;;;;;15.13;7.80;;;5.30;99.90;;;;;;5092948;28;20180;-56
2022/01/24 09:10:10;;;;;;;10.05;7.03;;;5.50;99.90;;;;;;5092878;28;20204;-54
2022/01/24 09:12:36;;;;;;;13.27;7.70;;;5.60;99.90;;;;;;5092746;28;20213;-58
2022/01/24 09:15:02;;;;;;;8.63;6.95;;;5.70;99.90;;;;;;5092850;28;20176;-58
2022/01/24 09:17:27;;;;;;;10.02;8.23;;;5.70;99.90;;;;;;5093074;28;20165;-54
2022/01/24 09:19:53;;;;;;;7.65;6.32;;;5.80;99.90;;;;;;5092817;28;20173;-53
2022/01/24 09:22:18;;;;;;;7.22;6.43;;;5.80;99.90;;;;;;5092733;28;20244;-57
2022/01/24 09:24:44;;;;;;;8.80;6.90;;;5.80;99.90;;;;;;5092700;28;20204;-58
2022/01/24 09:27:09;;;;;;;8.48;6.45;;;5.60;99.90;;;;;;5092522;28;20169;-58
2022/01/24 09:29:35;;;;;;;8.45;6.45;;;5.80;99.90;;;;;;5092904;28;20173;-58
2022/01/24 09:32:01;;;;;;;9.35;6.57;;;5.80;99.90;;;;;;5092729;28;20176;-58
2022/01/24 09:34:26;;;;;;;7.72;6.68;;;5.80;99.90;;;;;;5093080;28;20166;-59
2022/01/24 09:36:52;;;;;;;7.97;6.38;;;5.80;99.90;;;;;;5092482;28;20215;-59
2022/01/24 09:39:18;;;;;;;7.88;6.53;;;5.90;99.90;;;;;;5092474;28;20244;-54
2022/01/24 09:41:45;;;;;;;7.75;6.45;;;5.90;99.90;;;;;;5092324;28;20205;-59
2022/01/24 09:44:10;;;;;;;12.13;9.05;;;6.00;99.90;;;;;;5092136;28;20165;-55
2022/01/24 09:46:37;;;;;;;12.18;8.85;;;6.00;99.90;;;;;;5073935;28;20173;-58
2022/01/24 09:49:04;;;;;;;10.23;8.15;;;6.00;99.90;;;;;;5092015;28;20169;-59
2022/01/24 09:51:30;;;;;;;39.83;28.73;;;6.10;99.90;;;;;;5092173;28;20165;-59
2022/01/24 09:53:56;;;;;;;12.20;9.95;;;6.10;99.90;;;;;;5092558;28;20162;-56
2022/01/24 09:56:22;;;;;;;9.90;7.18;;;6.10;99.90;;;;;;5092271;28;20188;-59
2022/01/24 09:58:47;;;;;;;13.75;10.48;;;6.20;99.90;;;;;;5092037;28;20169;-59
2022/01/24 10:01:14;;;;;;;7.68;6.13;;;6.20;99.90;;;;;;5091881;28;20227;-56
2022/01/24 10:04:00;;;;;;;10.68;6.90;;;6.10;99.90;;;;;;5092127;28;20585;-58
2022/01/24 10:06:25;;;;;;;8.68;6.50;;;6.20;99.90;;;;;;5091962;28;20173;-58
2022/01/24 10:08:51;;;;;;;10.35;8.30;;;6.30;99.90;;;;;;5091824;28;20196;-48
2022/01/24 10:11:18;;;;;;;7.32;6.15;;;6.40;99.90;;;;;;5091712;28;20690;-58
2022/01/24 10:16:36;;;;;;;8.63;7.05;;;6.30;99.90;;;;;;5096543;28;20184;-53
2022/01/24 10:19:07;;;;;;;19.08;16.42;;;6.30;99.90;;;;;;5095936;28;20246;-51
2022/01/24 10:21:43;;;;;;;7.55;6.15;;;6.30;99.90;;;;;;5096234;28;20563;-54
2022/01/24 10:24:29;;;;;;;9.10;7.20;;;6.40;99.90;;;;;;5095913;28;20171;-53
2022/01/24 10:27:04;;;;;;;5.47;4.97;;;6.50;99.90;;;;;;5077665;28;20169;-58
2022/01/24 10:29:30;;;;;;;4.75;4.32;;;6.40;99.90;;;;;;5095821;28;20252;-52
2022/01/24 10:31:55;;;;;;;6.65;5.03;;;6.40;99.90;;;;;;5096175;28;20248;-52
2022/01/24 10:34:34;;;;;;;11.52;8.65;;;6.30;99.90;;;;;;5095731;28;20173;-58
2022/01/24 10:37:00;;;;;;;6.15;4.15;;;6.30;99.90;;;;;;5095950;28;20172;-52
2022/01/24 10:39:43;;;;;;;5.65;4.50;;;6.20;99.90;;;;;;5096032;28;20173;-55
2022/01/24 10:44:53;;;;;;;6.20;4.78;;;6.50;99.90;;;;;;5095624;28;20165;-59
2022/01/24 10:47:29;;;;;;;7.85;5.47;;;6.50;99.90;;;;;;5095546;28;20209;-58
2022/01/24 10:49:56;;;;;;;7.50;6.07;;;6.50;99.90;;;;;;5095318;28;20165;-54
2022/01/24 10:52:28;;;;;;;12.23;8.88;;;6.70;99.90;;;;;;5095411;28;20526;-58
2022/01/24 10:55:10;;;;;;;11.48;8.48;;;6.70;99.90;;;;;;5095155;28;20173;-59
2022/01/24 10:57:36;;;;;;;6.68;5.88;;;6.60;99.90;;;;;;5095646;28;20169;-58
2022/01/24 11:00:11;;;;;;;5.93;4.70;;;6.60;99.90;;;;;;5094911;28;20188;-58
2022/01/24 11:02:42;;;;;;;6.93;5.97;;;6.50;99.90;;;;;;5095068;28;20204;-58
2022/01/24 11:05:22;;;;;;;5.82;5.32;;;6.80;99.90;;;;;;5095040;28;20625;-57
2022/01/24 11:07:57;;;;;;;7.55;6.35;;;6.60;99.90;;;;;;5094984;28;20652;-56
2022/01/24 11:10:28;;;;;;;7.88;7.07;;;6.70;99.90;;;;;;5095043;28;20174;-56
2022/01/24 11:12:54;;;;;;;10.50;7.18;;;6.90;99.90;;;;;;5094951;28;20300;-57
2022/01/24 11:15:21;;;;;;;8.73;6.28;;;7.00;99.90;;;;;;5095031;28;20257;-52
2022/01/24 11:17:47;;;;;;;8.65;5.65;;;6.90;99.90;;;;;;5095113;28;20239;-56
2022/01/24 11:20:17;;;;;;;6.15;5.55;;;6.90;99.90;;;;;;5095014;28;20193;-56
2022/01/24 11:22:46;;;;;;;6.65;5.43;;;6.70;99.90;;;;;;5095171;28;20209;-54
2022/01/24 11:25:14;;;;;;;10.02;5.00;;;7.00;99.90;;;;;;5094256;28;20161;-54
2022/01/24 11:27:43;;;;;;;5.22;4.72;;;6.80;99.90;;;;;;5094744;28;20165;-50
2022/01/24 11:30:13;;;;;;;12.07;7.63;;;6.90;99.90;;;;;;5095138;28;20181;-50
2022/01/24 11:32:53;;;;;;;7.72;5.47;;;7.00;99.90;;;;;;5094890;28;20502;-56
2022/01/24 11:35:33;;;;;;;12.93;8.77;;;7.10;99.90;;;;;;5095059;28;20185;-51
2022/01/24 11:37:59;;;;;;;5.68;5.03;;;7.20;99.90;;;;;;5095139;28;20157;-50
2022/01/24 11:40:26;;;;;;;12.15;7.95;;;7.10;99.90;;;;;;5094674;28;20625;-53
2022/01/24 11:42:52;;;;;;;5.65;5.05;;;7.10;99.90;;;;;;5076940;28;20299;-45
2022/01/24 11:45:55;;;;;;;5.90;5.28;;;6.70;99.90;;;;;;5094766;28;20161;-50
2022/01/24 11:48:22;;;;;;;7.88;7.07;;;6.70;99.90;;;;;;5094764;28;20166;-50
2022/01/24 11:50:56;;;;;;;7.22;5.90;;;6.60;99.90;;;;;;5094465;28;20720;-48
2022/01/24 11:53:28;;;;;;;6.60;5.93;;;6.50;99.90;;;;;;5094449;28;20181;-49
2022/01/24 11:55:55;;;;;;;10.48;6.45;;;6.30;99.90;;;;;;5094301;28;20546;-50
2022/01/24 11:58:29;;;;;;;8.40;6.50;;;6.20;99.90;;;;;;5094322;28;20157;-47
2022/01/24 12:01:02;;;;;;;11.95;6.45;;;6.00;99.90;;;;;;5094607;28;20248;-53
2022/01/24 12:03:28;;;;;;;8.50;6.60;;;6.10;99.90;;;;;;5094813;28;20177;-51
2022/01/24 12:05:56;;;;;;;8.27;6.63;;;6.00;99.90;;;;;;5094131;28;20640;-50
2022/01/24 12:08:43;;;;;;;7.45;5.82;;;6.10;99.90;;;;;;5094073;28;20169;-52
2022/01/24 12:11:23;;;;;;;8.50;6.80;;;6.20;99.90;;;;;;5094090;28;20242;-51
2022/01/24 12:13:54;;;;;;;7.65;6.30;;;6.30;99.90;;;;;;5094060;28;20184;-54
2022/01/24 12:16:32;;;;;;;11.32;6.32;;;6.20;99.90;;;;;;5094309;28;20161;-55
2022/01/24 12:18:59;;;;;;;7.07;6.38;;;6.30;99.90;;;;;;5094478;28;20176;-54
2022/01/24 12:21:27;;;;;;;7.78;6.95;;;6.40;99.90;;;;;;5094136;28;20248;-52
2022/01/24 12:24:08;;;;;;;9.30;6.07;;;6.40;99.90;;;;;;5094062;28;20181;-55
2022/01/24 12:26:45;;;;;;;7.82;6.50;;;6.40;99.90;;;;;;5093740;28;20532;-56
2022/01/24 12:29:14;;;;;;;9.13;6.03;;;6.70;99.90;;;;;;5093645;28;20165;-52
2022/01/24 12:31:52;;;;;;;8.80;6.45;;;6.60;99.90;;;;;;5093937;28;20248;-54
2022/01/24 12:34:33;;;;;;;7.82;6.55;;;6.40;99.90;;;;;;5093848;28;20173;-51
2022/01/24 12:37:25;;;;;;;10.32;6.78;;;6.40;99.90;;;;;;5092978;28;20166;-46
2022/01/24 12:40:09;;;;;;;11.43;6.10;;;6.30;99.90;;;;;;5093821;28;20172;-56
2022/01/24 12:42:51;;;;;;;8.85;6.25;;;6.30;99.90;;;;;;5093351;28;20209;-50
2022/01/24 12:48:09;;;;;;;8.77;6.50;;;6.40;99.90;;;;;;5093453;28;20307;-53
2022/01/24 12:50:35;;;;;;;7.85;6.70;;;6.50;99.90;;;;;;5093307;28;20172;-49
2022/01/24 12:53:00;;;;;;;7.80;6.40;;;6.50;99.90;;;;;;5093058;28;20169;-53
2022/01/24 12:55:26;;;;;;;7.55;5.60;;;6.60;99.90;;;;;;5093485;28;20222;-47
2022/01/24 12:57:51;;;;;;;10.80;8.68;;;6.60;99.90;;;;;;5092666;28;20223;-48
2022/01/24 13:00:18;;;;;;;22.65;16.75;;;6.80;99.90;;;;;;5092785;28;20179;-46
2022/01/24 13:02:44;;;;;;;6.40;5.75;;;6.70;99.90;;;;;;5093190;28;20291;-46
2022/01/24 13:05:13;;;;;;;9.43;6.35;;;6.70;99.90;;;;;;5092255;28;20174;-46
2022/01/24 13:07:41;;;;;;;7.88;5.70;;;6.70;99.90;;;;;;5092293;28;20629;-50
2022/01/24 13:10:13;;;;;;;10.50;6.20;;;6.70;99.90;;;;;;5092730;28;20165;-47
2022/01/24 13:12:40;;;;;;;7.25;5.93;;;6.70;99.90;;;;;;5092160;28;20274;-46
2022/01/24 13:15:11;;;;;;;7.38;6.15;;;6.80;99.90;;;;;;5092474;28;20180;-47
2022/01/24 13:23:09;;;;;;;6.65;5.95;;;6.50;99.90;;;;;;5092482;28;20231;-46
2022/01/24 13:25:37;;;;;;;23.92;16.20;;;6.60;99.90;;;;;;5092384;28;20180;-47
2022/01/24 13:28:11;;;;;;;10.80;8.52;;;6.70;99.90;;;;;;5092585;28;20177;-47
2022/01/24 13:30:48;;;;;;;8.90;7.78;;;6.70;99.90;;;;;;5092436;28;20176;-48
2022/01/24 13:33:19;;;;;;;41.20;24.48;;;6.70;99.90;;;;;;5091831;28;20222;-46
2022/01/24 13:35:47;;;;;;;29.23;17.55;;;6.70;99.90;;;;;;5092380;28;20186;-47
2022/01/24 13:38:18;;;;;;;9.55;6.53;;;6.90;99.90;;;;;;5092296;28;20640;-46
2022/01/24 13:40:58;;;;;;;10.60;7.22;;;6.80;99.90;;;;;;5091994;28;20174;-47
2022/01/24 13:43:53;;;;;;;24.70;12.70;;;6.80;99.90;;;;;;5092186;28;20161;-47
2022/01/24 13:46:26;;;;;;;16.08;9.38;;;6.70;99.90;;;;;;5092414;28;20208;-46
2022/01/24 13:49:00;;;;;;;9.55;6.68;;;6.80;99.90;;;;;;5091642;28;20165;-50
2022/01/24 13:51:35;;;;;;;18.00;9.13;;;6.80;99.90;;;;;;5092698;28;20237;-49
2022/01/24 13:54:03;;;;;;;14.30;7.95;;;6.80;99.90;;;;;;5092042;28;20164;-46
2022/01/24 13:56:44;;;;;;;16.25;9.93;;;6.70;99.90;;;;;;5092299;28;20172;-47
2022/01/24 13:59:12;;;;;;;13.07;8.82;;;6.70;99.90;;;;;;5092000;28;20221;-47
2022/01/24 14:02:12;;;;;;;13.65;7.90;;;6.70;99.90;;;;;;5091945;28;20205;-47
2022/01/24 14:04:48;;;;;;;25.33;11.00;;;6.70;99.90;;;;;;5087589;28;20212;-47
2022/01/24 14:07:24;;;;;;;14.38;8.05;;;6.60;99.90;;;;;;5091937;28;20625;-48
2022/01/24 14:10:03;;;;;;;14.27;8.52;;;6.50;99.90;;;;;;5091747;28;20173;-48
2022/01/24 14:12:51;;;;;;;12.65;8.52;;;6.50;99.90;;;;;;5091946;28;20692;-47
2022/01/24 14:15:38;;;;;;;14.07;8.80;;;6.50;99.90;;;;;;5091711;28;20184;-47
2022/01/24 14:20:50;;;;;;;10.05;7.25;;;6.60;99.90;;;;;;5092232;28;20648;-47
2022/01/24 14:23:26;;;;;;;9.77;6.60;;;6.50;99.90;;;;;;5091772;28;20548;-49
2022/01/24 14:25:52;;;;;;;11.43;9.73;;;6.50;99.90;;;;;;5091974;28;20201;-46
2022/01/24 14:28:22;;;;;;;8.85;5.72;;;6.50;99.90;;;;;;5091675;28;20573;-48
2022/01/24 14:30:49;;;;;;;8.05;5.88;;;6.40;99.90;;;;;;5091626;28;20514;-52
2022/01/24 14:33:34;;;;;;;11.63;8.10;;;6.30;99.90;;;;;;5091445;28;20222;-47
2022/01/24 14:36:11;;;;;;;13.07;9.25;;;6.30;99.90;;;;;;5091784;28;20176;-46
2022/01/24 14:38:55;;;;;;;14.18;8.77;;;6.30;99.90;;;;;;5091589;28;20185;-54
2022/01/24 14:41:46;;;;;;;14.60;9.60;;;6.30;99.90;;;;;;5091614;28;20208;-46
2022/01/24 14:46:58;;;;;;;16.58;10.32;;;6.20;99.90;;;;;;5091854;28;20176;-48
2022/01/24 14:49:29;;;;;;;12.50;6.93;;;6.20;99.90;;;;;;5091681;28;20193;-47
2022/01/24 14:51:59;;;;;;;9.90;7.22;;;6.30;99.90;;;;;;5092219;28;20177;-50
2022/01/24 14:54:30;;;;;;;33.50;20.63;;;6.30;99.90;;;;;;5073179;28;20625;-48
2022/01/24 14:56:59;;;;;;;10.25;7.55;;;6.20;99.90;;;;;;5092070;28;20182;-47